This is the latest recevied weather packets stored in our database for station/object K1AWR. If no packets are shown the sender has not sent any weather packets the latest 10 day(s).
| Time | Temp. | Humidity | Pressure | Rain* | Wind** | Luminosity | Snow |
|---|---|---|---|---|---|---|---|
| 1777728338 | 12.78° C | 72% | 1012.2 hPa | 0 mm | - | 232 W/m² | - |
| 1777728034 | 13.33° C | 69% | 1012.1 hPa | 0 mm | - | 174 W/m² | - |
| 1777727731 | 13.33° C | 72% | 1012.2 hPa | 0 mm | - | 513 W/m² | - |
| 1777727428 | 12.22° C | 74% | 1012.3 hPa | 0 mm | - | 492 W/m² | - |
| 1777727126 | 12.78° C | 76% | 1012.4 hPa | 0 mm | - | 500 W/m² | - |
| 1777726824 | 12.78° C | 76% | 1012.4 hPa | 0 mm | - | 471 W/m² | - |
| 1777726520 | 12.22° C | 80% | 1012.5 hPa | 0 mm | - | 514 W/m² | - |
| 1777726217 | 11.11° C | 85% | 1012.5 hPa | 0 mm | - | 207 W/m² | - |
| 1777725914 | 11.11° C | 86% | 1012.7 hPa | 0 mm | - | 197 W/m² | - |
| 1777725611 | 10° C | 90% | 1012.5 hPa | 0 mm | - | 475 W/m² | - |
| 1777725309 | 10° C | 91% | 1012.5 hPa | 0 mm | - | 182 W/m² | - |
| 1777725005 | 9.44° C | 91% | 1012.7 hPa | 0 mm | - | 136 W/m² | - |
| 1777724701 | 9.44° C | 92% | 1012.7 hPa | 0 mm | - | 89 W/m² | - |
| 1777724399 | 9.44° C | 92% | 1012.8 hPa | 0 mm | - | 69 W/m² | - |
| 1777724096 | 9.44° C | 92% | 1012.9 hPa | 0 mm | - | 56 W/m² | - |
| 1777723794 | 8.89° C | 92% | 1012.7 hPa | 0 mm | - | 65 W/m² | - |
| 1777723490 | 8.89° C | 93% | 1012.8 hPa | 0 mm | - | 61 W/m² | - |
| 1777723187 | 8.89° C | 93% | 1012.9 hPa | 0 mm | - | 49 W/m² | - |
| 1777722885 | 8.89° C | 93% | 1012.7 hPa | 0 mm | - | 80 W/m² | - |
| 1777722580 | 8.89° C | 93% | 1012.6 hPa | 0 mm | - | 52 W/m² | - |
| 1777722277 | 8.89° C | 93% | 1012.6 hPa | 0 mm | - | 38 W/m² | - |
| 1777721975 | 8.89° C | 93% | 1012.7 hPa | 0 mm | - | 41 W/m² | - |
| 1777721672 | 8.33° C | 93% | 1012.7 hPa | 0 mm | - | 48 W/m² | - |
| 1777721371 | 8.33° C | 93% | 1012.7 hPa | 0 mm | - | 53 W/m² | - |
| 1777721068 | 8.33° C | 93% | 1012.8 hPa | 1.78 mm | - | 45 W/m² | - |
* Rain latest hour (hover to see other rain measurements)
** Current wind speed in m/s (hover to see current wind gust speed)